Time;durP1;ratioP1;P1;durP2;ratioP2;P2;SDS_P1;SDS_P2;PMS_P1;PMS_P2;Temp;Humidity;BMP_temperature;BMP_pressure;BME280_temperature;BME280_humidity;BME280_pressure;Samples;Min_cycle;Max_cycle;Signal;HPM_P1;HPM_P2
2022/01/11 00:01:29;;;;;;;27.60;14.95;;;;;;;4.08;92.06;100267.44;10133760;29;20053;-78
2022/01/11 00:06:43;;;;;;;27.52;14.98;;;;;;;3.97;92.81;100211.47;10133344;29;20140;-78
2022/01/11 00:11:46;;;;;;;24.30;14.68;;;;;;;3.71;92.64;100159.31;10133504;29;20051;-78
2022/01/11 00:16:47;;;;;;;25.80;14.40;;;;;;;4.34;92.91;100272.31;10132829;29;20048;-78
2022/01/11 00:21:49;;;;;;;28.15;15.57;;;;;;;4.02;92.83;100215.38;10132865;29;20067;-78
2022/01/11 00:26:50;;;;;;;24.80;14.95;;;;;;;2.86;92.43;100041.22;10132776;29;20509;-78
2022/01/11 00:31:52;;;;;;;25.83;14.98;;;;;;;2.34;92.46;99933.59;10133391;29;20044;-79
2022/01/11 00:36:53;;;;;;;30.02;15.70;;;;;;;4.03;92.79;100224.09;10132850;29;20040;-78
2022/01/11 00:41:54;;;;;;;25.83;15.07;;;;;;;2.45;92.89;99937.94;10133228;29;20411;-78
2022/01/11 00:46:55;;;;;;;27.45;15.80;;;;;;;1.72;93.03;99811.16;10132546;29;20449;-78
2022/01/11 00:51:56;;;;;;;28.42;15.20;;;;;;;2.49;92.42;99932.31;10132281;29;20168;-79
2022/01/11 00:56:56;;;;;;;30.67;16.05;;;;;;;3.37;92.88;100103.50;10132614;29;20080;-78
2022/01/11 01:01:57;;;;;;;22.92;13.80;;;;;;;3.76;92.87;100153.66;10138248;29;20045;-78
2022/01/11 01:06:59;;;;;;;25.67;14.85;;;;;;;4.60;93.31;100272.72;10139277;29;20416;-78
2022/01/11 01:12:00;;;;;;;24.50;15.13;;;;;;;3.12;92.66;100026.78;10139828;29;20053;-78
2022/01/11 01:17:00;;;;;;;27.35;15.82;;;;;;;2.12;92.63;99895.16;10139165;29;20048;-78
2022/01/11 01:22:02;;;;;;;26.98;15.63;;;;;;;4.17;93.15;100222.94;10138732;29;20501;-78
2022/01/11 01:27:03;;;;;;;36.13;17.38;;;;;;;4.47;92.88;100280.81;10138714;29;20045;-79
2022/01/11 01:32:04;;;;;;;36.58;18.65;;;;;;;4.00;93.68;100229.59;10139067;29;20059;-78
2022/01/11 01:37:07;;;;;;;44.67;19.27;;;;;;;3.73;94.15;100199.41;10138469;29;20055;-79
2022/01/11 01:42:11;;;;;;;39.85;18.90;;;;;;;2.58;93.96;100001.53;10153312;29;20556;-78
2022/01/11 01:47:12;;;;;;;39.07;19.93;;;;;;;2.34;94.19;99974.69;10137795;29;20528;-78
2022/01/11 01:52:14;;;;;;;47.22;21.02;;;;;;;1.62;94.23;99846.91;10137783;29;20592;-78
2022/01/11 01:57:15;;;;;;;44.13;20.88;;;;;;;4.18;95.30;100262.22;10137601;29;20049;-78
2022/01/11 02:02:16;;;;;;;41.80;21.08;;;;;;;3.57;95.13;100164.88;10138460;29;20079;-78
2022/01/11 02:07:17;;;;;;;44.85;21.15;;;;;;;4.40;95.58;100290.22;10137780;29;20088;-78
2022/01/11 02:12:18;;;;;;;48.53;21.55;;;;;;;2.42;95.58;99978.38;10136447;29;20044;-78
2022/01/11 02:17:19;;;;;;;53.53;23.35;;;;;;;4.42;95.90;100319.00;10137327;29;20052;-78
2022/01/11 02:22:19;;;;;;;48.40;23.15;;;;;;;3.37;95.40;100141.09;10136466;29;20096;-79
2022/01/11 02:27:20;;;;;;;48.08;23.52;;;;;;;3.16;96.35;100124.47;10137079;29;20082;-78
2022/01/11 02:32:21;;;;;;;49.17;22.55;;;;;;;2.06;96.77;99932.34;10136315;29;20040;-78
2022/01/11 02:37:22;;;;;;;45.40;22.42;;;;;;;3.96;96.65;100236.91;10136581;29;20087;-79
2022/01/11 02:42:23;;;;;;;48.08;22.63;;;;;;;3.17;96.64;100103.38;10135879;29;20072;-79
2022/01/11 02:47:24;;;;;;;45.55;21.63;;;;;;;3.20;96.66;100134.63;10136245;29;20143;-78
2022/01/11 02:52:25;;;;;;;50.88;23.73;;;;;;;3.31;96.70;100151.28;10136034;29;20427;-79
2022/01/11 02:57:26;;;;;;;48.97;23.02;;;;;;;3.34;96.98;100159.72;10135923;29;20075;-75
2022/01/11 03:02:26;;;;;;;60.58;23.70;;;;;;;3.09;97.82;100132.03;10153434;29;20040;-79
2022/01/11 03:07:27;;;;;;;47.60;23.00;;;;;;;2.54;98.25;100060.41;10181087;29;20060;-79
2022/01/11 03:12:29;;;;;;;47.50;22.38;;;;;;;3.85;98.53;100232.53;10142944;29;20052;-78
2022/01/11 03:17:30;;;;;;;47.30;21.95;;;;;;;3.52;99.32;100196.75;10134631;29;20076;-81
2022/01/11 03:22:31;;;;;;;43.85;22.27;;;;;;;4.49;99.33;100333.31;10151772;29;20078;-79
2022/01/11 03:27:32;;;;;;;39.92;21.48;;;;;;;4.21;98.31;100284.81;10172612;29;20127;-79
2022/01/11 03:32:33;;;;;;;44.92;22.65;;;;;;;3.71;98.70;100211.00;10173032;29;20083;-79
2022/01/11 03:37:35;;;;;;;45.72;21.92;;;;;;;3.55;98.72;100175.50;10173022;29;20067;-78
2022/01/11 03:42:36;;;;;;;49.45;22.90;;;;;;;4.35;98.69;100313.41;10167420;29;20055;-78
2022/01/11 03:47:38;;;;;;;46.15;22.02;;;;;;;2.20;98.20;99970.56;10165407;29;20051;-79
2022/01/11 03:52:39;;;;;;;45.35;21.65;;;;;;;4.38;98.63;100334.19;10172240;29;20036;-79
2022/01/11 03:57:41;;;;;;;45.88;22.35;;;;;;;2.81;98.64;100101.09;10172584;29;20420;-79
2022/01/11 04:02:42;;;;;;;40.25;20.20;;;;;;;3.66;98.48;100227.16;10170063;29;20610;-80
2022/01/11 04:07:43;;;;;;;39.05;20.98;;;;;;;4.19;99.06;100316.50;10171612;29;20068;-78
2022/01/11 04:12:47;;;;;;;38.22;20.30;;;;;;;3.03;99.33;100145.66;10161483;29;20063;-80
2022/01/11 04:17:48;;;;;;;38.97;20.40;;;;;;;4.33;99.64;100363.50;10172686;29;20089;-75
2022/01/11 04:22:50;;;;;;;35.20;19.80;;;;;;;4.37;100.00;100352.72;10172947;29;20100;-79
2022/01/11 04:27:51;;;;;;;42.00;20.05;;;;;;;4.31;99.85;100341.78;10172428;29;20052;-78
2022/01/11 04:32:53;;;;;;;34.50;19.02;;;;;;;1.57;99.23;99910.06;10171096;29;20408;-75
2022/01/11 04:37:54;;;;;;;34.95;20.02;;;;;;;4.31;99.75;100335.69;10179644;29;20390;-82
2022/01/11 04:42:54;;;;;;;34.97;17.90;;;;;;;4.42;99.59;100372.44;10180247;29;20044;-78
2022/01/11 04:47:56;;;;;;;34.75;19.55;;;;;;;3.09;99.14;100155.66;10178720;29;20068;-75
2022/01/11 04:52:58;;;;;;;28.42;17.65;;;;;;;3.08;99.31;100127.75;10179399;29;20445;-75
2022/01/11 04:57:59;;;;;;;35.25;18.95;;;;;;;3.39;99.58;100199.56;10179180;29;20048;-76
2022/01/11 05:03:00;;;;;;;32.28;18.40;;;;;;;4.11;100.00;100330.28;10177666;29;20040;-77
2022/01/11 05:08:02;;;;;;;30.20;18.27;;;;;;;2.25;99.33;100016.41;10177572;29;20064;-77
2022/01/11 05:13:03;;;;;;;25.95;16.23;;;;;;;3.31;99.69;100188.84;10176921;29;20052;-76
2022/01/11 05:18:04;;;;;;;29.17;18.25;;;;;;;2.74;99.14;100113.88;10177607;29;20088;-77
2022/01/11 05:23:08;;;;;;;28.52;18.25;;;;;;;4.47;99.66;100399.19;10177891;29;20099;-77
2022/01/11 05:28:09;;;;;;;31.55;19.10;;;;;;;3.83;100.00;100299.34;10176305;29;20485;-77
2022/01/11 05:33:10;;;;;;;29.38;18.65;;;;;;;3.82;100.00;100295.03;10176671;29;20445;-77
2022/01/11 05:38:11;;;;;;;33.80;19.20;;;;;;;2.85;99.48;100120.91;10178182;29;20052;-77
2022/01/11 05:43:12;;;;;;;34.03;18.65;;;;;;;2.15;100.00;100035.59;10176814;29;20040;-76
2022/01/11 05:48:13;;;;;;;34.88;19.80;;;;;;;3.12;100.00;100170.31;10176341;29;20044;-77
2022/01/11 05:53:14;;;;;;;30.65;19.48;;;;;;;2.81;100.00;100096.69;10176077;29;20175;-76
2022/01/11 05:58:15;;;;;;;32.35;18.67;;;;;;;3.40;100.00;100197.78;10177030;29;20052;-76
2022/01/11 06:03:16;;;;;;;31.38;18.80;;;;;;;2.86;100.00;100112.91;10177807;29;20051;-76
2022/01/11 06:08:17;;;;;;;32.75;18.55;;;;;;;4.85;100.00;100405.69;10177193;29;20128;-76
2022/01/11 06:13:18;;;;;;;32.30;18.58;;;;;;;3.34;100.00;100172.03;10175999;29;20044;-76
2022/01/11 06:18:19;;;;;;;29.60;17.65;;;;;;;2.92;100.00;100132.56;10174499;29;20036;-77
2022/01/11 06:23:20;;;;;;;36.60;15.57;;;;;;;3.58;100.00;100235.66;10175083;29;20040;-78
2022/01/11 06:28:20;;;;;;;21.02;10.52;;;;;;;3.10;100.00;100174.84;10175453;29;20044;-76
2022/01/11 06:33:22;;;;;;;23.83;9.93;;;;;;;2.01;100.00;100024.44;10175080;29;20131;-76
2022/01/11 06:38:22;;;;;;;16.95;9.65;;;;;;;2.24;100.00;100077.66;10175508;29;20445;-76
2022/01/11 06:43:23;;;;;;;24.10;11.38;;;;;;;3.00;100.00;100227.25;10174343;29;20142;-77
2022/01/11 06:48:24;;;;;;;16.20;9.45;;;;;;;4.34;100.00;100403.81;10175689;29;20457;-76
2022/01/11 06:53:26;;;;;;;16.65;10.15;;;;;;;3.53;100.00;100250.13;10175438;29;20477;-76
2022/01/11 06:58:27;;;;;;;25.30;13.65;;;;;;;2.16;100.00;100053.00;10173973;29;20520;-76
2022/01/11 07:03:28;;;;;;;68.57;33.67;;;;;;;2.79;100.00;100131.91;10175589;29;20052;-76
2022/01/11 07:08:29;;;;;;;87.10;40.78;;;;;;;3.36;100.00;100191.94;10174928;29;20063;-75
2022/01/11 07:13:30;;;;;;;85.28;42.88;;;;;;;4.48;100.00;100366.66;10173678;29;20051;-75
2022/01/11 07:18:31;;;;;;;27.95;15.18;;;;;;;4.00;100.00;100282.19;10174710;29;20058;-76
2022/01/11 07:23:32;;;;;;;20.23;11.90;;;;;;;3.72;100.00;100212.69;10174611;29;20126;-76
2022/01/11 07:28:33;;;;;;;19.75;10.88;;;;;;;4.49;100.00;100343.84;10174360;29;20071;-76
2022/01/11 07:33:34;;;;;;;31.33;11.68;;;;;;;3.60;100.00;100168.09;10173638;29;20059;-76
2022/01/11 07:38:35;;;;;;;19.60;10.60;;;;;;;3.33;100.00;100130.97;10172980;29;20051;-77
2022/01/11 07:43:35;;;;;;;19.60;11.05;;;;;;;4.49;100.00;100304.38;10173571;29;20043;-77
2022/01/11 07:48:36;;;;;;;19.48;10.23;;;;;;;3.17;100.00;100100.75;10171969;29;20050;-78
2022/01/11 07:53:37;;;;;;;19.15;10.48;;;;;;;4.03;100.00;100238.06;10172084;29;20063;-78
2022/01/11 07:58:38;;;;;;;19.05;10.45;;;;;;;3.08;100.00;100087.53;10171575;29;20040;-77
2022/01/11 08:03:39;;;;;;;21.35;9.98;;;;;;;2.51;100.00;99963.66;10172503;29;20413;-77
2022/01/11 08:08:40;;;;;;;23.25;11.13;;;;;;;3.40;100.00;100074.38;10170812;29;20143;-77
2022/01/11 08:13:41;;;;;;;17.55;10.25;;;;;;;3.84;99.77;100157.31;10173013;29;20043;-77
2022/01/11 08:18:42;;;;;;;26.42;11.50;;;;;;;3.32;99.81;100085.53;10171127;29;20062;-77
2022/01/11 08:23:42;;;;;;;28.58;11.70;;;;;;;3.74;99.16;100142.44;10171172;29;20036;-77
2022/01/11 08:28:44;;;;;;;23.80;11.05;;;;;;;4.20;98.99;100212.16;10172178;29;20564;-77
2022/01/11 08:33:46;;;;;;;23.52;11.73;;;;;;;3.61;98.50;100090.94;10171986;29;20044;-77
2022/01/11 08:38:46;;;;;;;21.85;11.77;;;;;;;3.42;98.65;100048.81;10172067;29;20468;-77
2022/01/11 08:43:47;;;;;;;23.65;11.73;;;;;;;4.39;98.71;100221.94;10171967;29;20096;-77
2022/01/11 08:48:48;;;;;;;23.02;11.07;;;;;;;4.13;98.11;100177.69;10170664;29;20036;-77
2022/01/11 08:53:49;;;;;;;22.80;11.23;;;;;;;3.56;97.68;100074.75;10170722;29;20508;-77
2022/01/11 08:58:50;;;;;;;21.60;11.63;;;;;;;3.57;97.60;100073.78;10170034;29;20080;-76
2022/01/11 09:03:52;;;;;;;28.27;12.70;;;;;;;4.16;98.45;100158.16;10171461;29;20068;-77
2022/01/11 09:08:53;;;;;;;26.35;13.77;;;;;;;4.35;98.41;100168.78;10170229;29;20060;-77
2022/01/11 09:13:54;;;;;;;31.25;15.45;;;;;;;3.53;97.67;100025.13;10170399;29;20056;-77
2022/01/11 09:18:55;;;;;;;24.67;13.18;;;;;;;4.20;97.77;100105.19;10171071;29;20043;-77
2022/01/11 09:23:56;;;;;;;34.45;18.40;;;;;;;3.22;97.34;99932.34;10177907;29;20044;-76
2022/01/11 09:28:57;;;;;;;27.48;13.10;;;;;;;4.04;97.16;100055.75;10178809;29;20488;-77
2022/01/11 09:33:59;;;;;;;28.40;15.82;;;;;;;3.75;96.94;100010.13;10177387;29;20058;-77
2022/01/11 09:39:00;;;;;;;26.13;12.68;;;;;;;3.89;96.54;100034.25;10177543;29;20405;-77
2022/01/11 09:44:01;;;;;;;21.85;11.30;;;;;;;4.84;96.38;100196.06;10175697;29;20044;-76
2022/01/11 09:49:03;;;;;;;25.65;13.02;;;;;;;5.48;96.84;100314.16;10177493;29;20036;-76
2022/01/11 09:54:05;;;;;;;24.55;14.13;;;;;;;3.57;96.49;99983.66;10175879;29;20044;-77
2022/01/11 09:59:07;;;;;;;27.80;13.57;;;;;;;4.07;96.48;100033.63;10177132;29;20040;-78
2022/01/11 10:04:11;;;;;;;25.23;12.65;;;;;;;4.33;96.15;100090.00;10177822;29;20087;-77
2022/01/11 10:09:18;;;;;;;24.05;12.07;;;;;;;5.16;96.36;100176.59;10175361;29;20060;-77
2022/01/11 10:14:33;;;;;;;35.80;15.20;;;;;;;4.00;95.11;99983.38;10176042;29;20059;-77
2022/01/11 10:19:36;;;;;;;21.75;12.43;;;;;;;4.56;94.23;100053.78;10175143;29;20036;-77
2022/01/11 10:24:44;;;;;;;26.42;12.13;;;;;;;4.68;94.92;100077.34;10176018;29;20091;-77
2022/01/11 10:29:50;;;;;;;21.42;11.85;;;;;;;5.49;95.27;100254.41;10174052;29;20550;-77
2022/01/11 10:34:55;;;;;;;24.65;12.45;;;;;;;6.10;95.12;100335.06;10173629;29;20099;-77
2022/01/11 10:40:06;;;;;;;23.83;13.63;;;;;;;4.61;94.26;100089.38;10174167;29;20048;-76
2022/01/11 10:45:09;;;;;;;28.77;15.27;;;;;;;4.41;94.05;100091.16;10175237;29;20107;-77
2022/01/11 10:50:30;;;;;;;23.43;13.10;;;;;;;4.43;94.07;100094.44;10175875;29;20043;-77
2022/01/11 10:55:34;;;;;;;29.10;12.27;;;;;;;4.78;94.37;100172.91;10173635;29;20088;-75
2022/01/11 11:00:40;;;;;;;22.90;12.77;;;;;;;6.05;94.43;100348.66;10172957;29;20080;-75
2022/01/11 11:05:46;;;;;;;26.08;13.32;;;;;;;5.65;93.73;100296.00;10174739;29;20051;-75
2022/01/11 11:11:05;;;;;;;21.83;11.70;;;;;;;5.72;93.97;100276.06;10174013;29;20052;-75
2022/01/11 11:16:28;;;;;;;29.05;15.82;;;;;;;4.88;93.12;100139.56;10173542;29;20064;-75
2022/01/11 11:21:38;;;;;;;22.85;13.07;;;;;;;4.56;91.94;100088.00;10173909;29;20524;-75
2022/01/11 11:26:46;;;;;;;29.70;14.05;;;;;;;4.17;92.39;100028.41;10173762;29;20055;-75
2022/01/11 11:31:48;;;;;;;21.55;11.15;;;;;;;4.85;92.48;100176.69;10173624;29;20106;-75
2022/01/11 11:36:49;;;;;;;27.52;13.80;;;;;;;4.12;93.34;100068.22;10173369;29;20106;-75
2022/01/11 11:41:54;;;;;;;23.08;12.77;;;;;;;4.20;92.94;100083.34;10173469;29;20134;-76
2022/01/11 11:47:01;;;;;;;23.63;12.32;;;;;;;3.56;92.86;99967.06;10172976;29;20040;-76
2022/01/11 11:52:25;;;;;;;22.27;12.23;;;;;;;6.08;92.50;100344.94;10172632;29;20567;-75
2022/01/11 11:57:30;;;;;;;21.97;11.90;;;;;;;4.29;92.21;100074.66;10171644;29;20389;-76
2022/01/11 12:02:40;;;;;;;26.02;11.38;;;;;;;5.96;92.76;100367.13;10172908;29;20102;-76
2022/01/11 12:07:44;;;;;;;20.40;11.35;;;;;;;4.85;92.51;100197.75;10172237;29;20477;-76
2022/01/11 12:12:53;;;;;;;25.20;11.80;;;;;;;4.40;92.45;100115.75;10173420;29;20044;-76
2022/01/11 12:17:59;;;;;;;18.23;11.02;;;;;;;3.86;92.50;100052.91;10148905;29;20048;-75
2022/01/11 12:23:00;;;;;;;21.13;11.05;;;;;;;3.96;92.91;100095.00;10133965;29;20131;-76
2022/01/11 12:28:04;;;;;;;22.38;11.57;;;;;;;3.17;92.75;99980.00;10139839;29;20592;-76
2022/01/11 12:33:11;;;;;;;22.42;11.25;;;;;;;4.15;92.68;100122.31;10143114;29;20533;-76
2022/01/11 12:38:12;;;;;;;19.75;11.68;;;;;;;5.67;93.75;100371.34;10170684;29;20074;-76
2022/01/11 12:43:34;;;;;;;21.52;11.27;;;;;;;5.48;93.18;100350.22;10170402;29;20067;-75
2022/01/11 12:48:45;;;;;;;29.58;11.45;;;;;;;5.55;93.63;100382.97;10172219;29;20050;-76
2022/01/11 12:53:46;;;;;;;22.13;11.98;;;;;;;4.78;93.42;100262.41;10171614;29;20070;-76
2022/01/11 12:58:47;;;;;;;34.65;13.38;;;;;;;5.37;93.56;100366.97;10178374;29;20047;-75
2022/01/11 13:03:55;;;;;;;24.73;12.45;;;;;;;2.86;93.99;100000.09;10179155;29;20051;-76
2022/01/11 13:09:03;;;;;;;21.73;12.88;;;;;;;5.37;93.90;100376.69;10177441;29;20066;-76
2022/01/11 13:19:43;;;;;;;25.38;12.95;;;;;;;4.78;94.09;100304.50;10173659;29;20044;-77
2022/01/11 13:24:48;;;;;;;24.67;12.17;;;;;;;5.21;94.08;100354.31;10178897;29;20055;-78
2022/01/11 13:29:49;;;;;;;24.33;12.75;;;;;;;5.36;93.79;100401.34;10138204;29;20044;-76
2022/01/11 13:34:50;;;;;;;21.90;12.65;;;;;;;4.73;93.99;100315.44;10161728;29;20408;-77
2022/01/11 13:39:54;;;;;;;24.10;13.02;;;;;;;4.98;94.36;100368.63;10175435;29;20597;-77
2022/01/11 13:44:57;;;;;;;26.50;13.90;;;;;;;4.67;94.26;100284.41;10175850;29;20489;-77
2022/01/11 13:49:59;;;;;;;23.58;13.35;;;;;;;3.76;94.36;100151.84;10174705;29;20127;-77
2022/01/11 13:55:00;;;;;;;22.65;12.80;;;;;;;4.37;94.64;100250.16;10171068;29;20468;-77
2022/01/11 14:00:15;;;;;;;24.48;12.30;;;;;;;4.84;95.00;100338.19;10178932;29;20055;-77
2022/01/11 14:05:18;;;;;;;;;;;;;;;5.34;93.83;100409.38;10165956;29;20504;-77
2022/01/11 14:10:21;;;;;;;24.17;13.43;;;;;;;4.10;94.28;100226.09;10174217;29;19923;-76
2022/01/11 14:15:25;;;;;;;23.38;13.98;;;;;;;4.63;95.21;100324.25;10174152;29;20047;-77
2022/01/11 14:20:32;;;;;;;27.70;15.10;;;;;;;4.24;95.06;100281.91;10173689;29;20052;-77
2022/01/11 14:25:43;;;;;;;26.08;13.75;;;;;;;3.93;95.30;100234.56;10171253;29;20537;-78
2022/01/11 14:30:49;;;;;;;29.40;14.35;;;;;;;4.00;95.37;100227.81;10180110;29;20092;-78
2022/01/11 14:36:06;;;;;;;26.45;12.63;;;;;;;4.17;95.56;100249.22;10175474;29;20044;-77
2022/01/11 14:41:10;;;;;;;30.60;15.70;;;;;;;4.46;95.74;100325.69;10148649;29;20535;-77
2022/01/11 14:46:17;;;;;;;38.43;16.53;;;;;;;4.16;96.19;100284.34;10169154;29;20040;-77
2022/01/11 14:51:24;;;;;;;29.55;16.95;;;;;;;3.37;96.29;100150.75;10170353;29;20047;-77
2022/01/11 14:56:31;;;;;;;28.75;15.38;;;;;;;5.01;96.42;100419.19;10169027;29;20512;-77
2022/01/11 15:01:36;;;;;;;27.98;14.52;;;;;;;4.53;96.37;100339.97;10166589;29;20091;-77
2022/01/11 15:06:40;;;;;;;33.92;15.25;;;;;;;4.30;96.59;100298.00;10168234;29;20059;-78
2022/01/11 15:11:44;;;;;;;31.30;15.55;;;;;;;4.61;97.16;100320.91;10168552;29;20463;-79
2022/01/11 15:16:46;;;;;;;;;;;;;;;4.97;96.22;100369.59;10164019;29;20048;-78
2022/01/11 15:21:46;;;;;;;31.30;15.85;;;;;;;4.28;98.01;100275.47;10169007;29;20092;-76
2022/01/11 15:26:48;;;;;;;29.77;15.18;;;;;;;4.14;99.24;100276.59;10174121;29;20496;-77
2022/01/11 15:31:51;;;;;;;29.25;14.80;;;;;;;4.69;99.34;100374.53;10174371;29;20044;-76
2022/01/11 15:36:53;;;;;;;27.17;13.90;;;;;;;3.92;99.60;100232.03;10152241;29;20188;-74
2022/01/11 15:41:53;;;;;;;33.28;15.57;;;;;;;4.64;99.25;100333.81;10173540;29;20044;-75
2022/01/11 15:46:54;;;;;;;23.08;11.65;;;;;;;4.84;99.44;100363.69;10173379;29;20036;-78
2022/01/11 15:51:58;;;;;;;30.95;14.05;;;;;;;3.80;100.00;100203.22;10144419;29;20134;-76
2022/01/11 15:56:58;;;;;;;32.58;14.82;;;;;;;3.39;100.00;100193.50;10104822;29;20052;-77
2022/01/11 16:02:00;;;;;;;27.05;15.25;;;;;;;4.76;100.00;100414.34;10173387;29;20393;-74
2022/01/11 16:07:00;;;;;;;27.63;13.98;;;;;;;4.73;100.00;100389.13;10175775;29;20124;-75
2022/01/11 16:12:01;;;;;;;23.90;13.73;;;;;;;4.36;99.87;100338.75;10175842;29;20071;-79
2022/01/11 16:17:03;;;;;;;29.70;14.05;;;;;;;4.22;100.00;100321.50;10179026;29;20048;-75
2022/01/11 16:22:04;;;;;;;21.15;13.23;;;;;;;4.82;100.00;100424.38;10170559;29;20044;-76
2022/01/11 16:27:05;;;;;;;22.73;11.88;;;;;;;3.87;100.00;100258.72;10167607;29;20040;-76
2022/01/11 16:32:06;;;;;;;19.25;11.68;;;;;;;3.25;99.56;100160.47;10172083;29;20051;-77
2022/01/11 16:37:10;;;;;;;21.40;11.43;;;;;;;4.56;100.00;100372.13;10173300;29;20505;-76
2022/01/11 16:47:32;;;;;;;29.15;13.13;;;;;;;3.75;100.00;100238.72;10171774;29;20036;-76
2022/01/11 16:52:33;;;;;;;22.45;13.13;;;;;;;5.12;100.00;100470.13;10171970;29;20079;-76
2022/01/11 16:57:35;;;;;;;22.80;12.82;;;;;;;4.02;99.71;100270.56;10172023;29;20047;-76
2022/01/11 17:02:36;;;;;;;25.98;13.52;;;;;;;4.35;100.00;100323.94;10173920;29;20055;-76
2022/01/11 17:07:37;;;;;;;26.27;13.93;;;;;;;4.58;99.88;100330.72;10174929;29;20117;-76
2022/01/11 17:12:39;;;;;;;27.70;13.77;;;;;;;5.31;99.66;100443.06;10175269;29;20044;-75
2022/01/11 17:17:41;;;;;;;26.30;13.88;;;;;;;5.36;99.75;100438.25;10174157;29;20480;-75
2022/01/11 17:22:42;;;;;;;27.63;13.70;;;;;;;5.28;99.63;100420.44;10176298;29;20044;-73
2022/01/11 17:27:44;;;;;;;28.50;13.93;;;;;;;4.58;99.49;100304.44;10174909;29;20138;-75
2022/01/11 17:32:45;;;;;;;23.70;13.32;;;;;;;3.86;98.89;100194.81;10177554;29;20501;-77
2022/01/11 17:37:46;;;;;;;27.65;13.80;;;;;;;5.09;98.98;100386.97;10176987;29;20048;-74
2022/01/11 17:42:48;;;;;;;22.92;13.45;;;;;;;5.42;99.43;100414.81;10176109;29;20044;-76
2022/01/11 17:47:52;;;;;;;21.98;12.63;;;;;;;5.41;99.30;100421.03;10182215;29;20087;-77
2022/01/11 17:52:53;;;;;;;28.65;13.93;;;;;;;4.71;99.51;100300.75;10175834;29;20088;-79
2022/01/11 17:57:53;;;;;;;26.17;13.32;;;;;;;4.76;98.85;100288.88;10175844;29;20051;-81
2022/01/11 18:02:54;;;;;;;22.95;12.90;;;;;;;4.55;99.18;100254.69;10175093;29;20036;-78
2022/01/11 18:07:56;;;;;;;23.70;13.30;;;;;;;5.49;98.48;100408.03;10180497;29;20060;-73
2022/01/11 18:13:00;;;;;;;20.45;12.57;;;;;;;5.51;98.30;100415.00;10181693;29;20040;-76
2022/01/11 18:18:00;;;;;;;22.38;13.02;;;;;;;4.82;98.25;100298.03;10182756;29;20063;-77
2022/01/11 18:23:01;;;;;;;24.38;13.13;;;;;;;4.78;98.76;100293.97;10202539;29;20051;-75
2022/01/11 18:28:04;;;;;;;23.50;13.57;;;;;;;5.24;98.68;100358.47;10193633;29;20163;-76
2022/01/11 18:33:05;;;;;;;28.77;14.95;;;;;;;5.33;99.16;100399.00;10210866;29;20228;-76
2022/01/11 18:38:08;;;;;;;26.63;14.02;;;;;;;5.41;98.19;100402.59;10215283;29;20111;-76
2022/01/11 18:43:09;;;;;;;21.52;13.75;;;;;;;4.11;97.98;100182.22;10215031;29;20053;-77
2022/01/11 18:48:10;;;;;;;27.17;14.20;;;;;;;4.27;98.23;100223.81;10198111;29;20428;-75
2022/01/11 18:53:12;;;;;;;25.48;14.25;;;;;;;5.14;98.22;100349.69;10173868;29;20036;-75
2022/01/11 18:58:13;;;;;;;23.80;13.60;;;;;;;5.33;98.12;100389.28;10175685;29;20048;-75
2022/01/11 19:03:14;;;;;;;22.02;14.20;;;;;;;4.07;98.47;100179.03;10173620;29;20048;-75
2022/01/11 19:08:15;;;;;;;20.00;11.95;;;;;;;5.00;98.65;100337.72;10175473;29;20524;-75
2022/01/11 19:13:16;;;;;;;22.95;13.48;;;;;;;5.36;97.84;100394.28;10173010;29;20044;-76
2022/01/11 19:18:16;;;;;;;23.95;13.88;;;;;;;5.16;98.25;100358.31;10173246;29;20087;-75
2022/01/11 19:23:17;;;;;;;28.83;14.43;;;;;;;4.50;98.17;100246.38;10171037;29;20134;-75
2022/01/11 19:28:19;;;;;;;25.90;13.93;;;;;;;5.03;98.01;100340.09;10169403;29;20100;-75
2022/01/11 19:33:20;;;;;;;23.60;13.63;;;;;;;3.78;97.79;100126.31;10183690;29;20044;-75
2022/01/11 19:38:21;;;;;;;29.05;14.63;;;;;;;5.16;98.00;100353.03;10172350;29;20532;-76
2022/01/11 19:43:22;;;;;;;26.17;14.70;;;;;;;5.11;97.42;100342.06;10170953;29;20189;-75
2022/01/11 19:48:23;;;;;;;25.10;14.15;;;;;;;4.85;97.69;100284.59;10174118;29;20608;-75
2022/01/11 19:53:24;;;;;;;27.15;15.35;;;;;;;4.63;97.69;100261.91;10171590;29;20566;-76
2022/01/11 19:58:25;;;;;;;32.08;17.10;;;;;;;5.39;97.58;100380.00;10192611;29;20051;-75
2022/01/11 20:03:26;;;;;;;33.28;16.70;;;;;;;3.84;97.01;100106.56;10177595;29;20044;-76
2022/01/11 20:08:29;;;;;;;30.30;16.33;;;;;;;4.68;97.34;100237.84;10171732;29;20412;-75
2022/01/11 20:13:30;;;;;;;28.25;15.90;;;;;;;5.08;97.76;100313.34;10173516;29;20048;-75
2022/01/11 20:18:31;;;;;;;32.22;15.85;;;;;;;4.74;97.70;100251.31;10173315;29;20556;-75
2022/01/11 20:28:52;;;;;;;32.47;16.52;;;;;;;4.33;97.20;100182.03;10172585;29;20036;-76
2022/01/11 20:33:53;;;;;;;28.65;15.77;;;;;;;4.76;97.00;100240.66;10172588;29;20068;-76
2022/01/11 20:38:54;;;;;;;30.80;15.98;;;;;;;5.25;97.49;100337.25;10173350;29;20071;-76
2022/01/11 20:43:55;;;;;;;35.10;16.33;;;;;;;4.60;97.35;100232.41;10172291;29;20044;-76
2022/01/11 20:48:56;;;;;;;28.85;16.33;;;;;;;5.32;97.66;100358.63;10172907;29;20032;-76
2022/01/11 20:53:57;;;;;;;30.27;15.40;;;;;;;2.95;97.45;99964.38;10172647;29;20084;-76
2022/01/11 20:58:58;;;;;;;28.55;16.95;;;;;;;5.00;97.21;100301.69;10173074;29;20071;-76
2022/01/11 21:03:59;;;;;;;29.83;15.80;;;;;;;4.55;97.64;100209.97;10171839;29;20400;-75
2022/01/11 21:09:00;;;;;;;24.38;14.73;;;;;;;5.08;97.49;100298.38;10172113;29;20060;-76
2022/01/11 21:14:01;;;;;;;24.83;14.77;;;;;;;5.32;97.17;100320.91;10171093;29;20044;-76
2022/01/11 21:24:22;;;;;;;25.83;15.15;;;;;;;4.37;96.80;100172.13;10179203;29;20047;-76
2022/01/11 21:29:24;;;;;;;24.65;15.10;;;;;;;5.25;97.00;100300.38;10178492;29;20036;-75
2022/01/11 21:34:24;;;;;;;27.48;15.13;;;;;;;5.35;97.11;100324.09;10177743;29;20497;-76
2022/01/11 21:39:25;;;;;;;26.58;15.18;;;;;;;5.03;97.64;100258.47;10178175;29;20091;-76
2022/01/11 21:44:37;;;;;;;28.42;15.77;;;;;;;4.53;97.19;100196.13;10165983;29;20049;-76
2022/01/11 21:49:40;;;;;;;26.63;15.48;;;;;;;4.34;96.84;100153.97;10139781;29;20048;-76
2022/01/11 21:54:41;;;;;;;31.67;15.32;;;;;;;3.79;96.90;100087.72;10177721;29;20191;-76
2022/01/11 21:59:42;;;;;;;25.52;14.00;;;;;;;5.39;96.64;100343.97;10163155;29;20180;-76
2022/01/11 22:04:44;;;;;;;28.60;15.95;;;;;;;4.81;97.03;100238.44;10153235;29;20041;-75
2022/01/11 22:09:45;;;;;;;27.80;15.30;;;;;;;5.15;96.71;100296.91;10137735;29;20064;-76
2022/01/11 22:15:08;;;;;;;25.40;15.13;;;;;;;5.13;96.12;100296.19;10137301;29;20056;-76
2022/01/11 22:20:11;;;;;;;29.27;16.40;;;;;;;4.47;96.47;100188.75;10137363;29;20265;-76
2022/01/11 22:25:14;;;;;;;29.50;16.50;;;;;;;4.70;96.97;100228.88;10137125;29;20102;-75
2022/01/11 22:30:15;;;;;;;26.45;15.70;;;;;;;3.45;96.66;100013.59;10137646;29;20525;-75
2022/01/11 22:35:15;;;;;;;27.67;15.77;;;;;;;3.05;96.16;99962.66;10171382;29;20416;-76
2022/01/11 22:40:16;;;;;;;26.50;15.50;;;;;;;4.69;96.57;100226.34;10175597;29;20196;-76
2022/01/11 22:45:17;;;;;;;32.70;17.13;;;;;;;4.79;96.49;100233.34;10174199;29;20150;-76
2022/01/11 22:50:18;;;;;;;29.73;15.85;;;;;;;5.36;96.37;100324.97;10175101;29;20572;-76
2022/01/11 22:55:19;;;;;;;28.42;15.65;;;;;;;4.24;96.22;100159.16;10174773;29;20107;-75
2022/01/11 23:00:20;;;;;;;30.13;16.50;;;;;;;5.15;96.85;100293.44;10174353;29;20044;-76
2022/01/11 23:05:21;;;;;;;27.70;15.57;;;;;;;3.87;96.36;100086.09;10175360;29;20079;-76
2022/01/11 23:10:21;;;;;;;26.23;16.08;;;;;;;5.40;96.52;100335.09;10175075;29;20155;-76
2022/01/11 23:15:22;;;;;;;26.65;15.38;;;;;;;4.52;96.68;100180.47;10174514;29;20087;-76